sensor_id;sensor_type;location;lat;lon;timestamp;P1;durP1;ratioP1;P2;durP2;ratioP2
7761;SDS011;3925;48.636;9.516;2023-06-05T00:00:02;4.77;;;4.30;;
7761;SDS011;3925;48.636;9.516;2023-06-05T00:02:31;5.27;;;4.77;;
7761;SDS011;3925;48.636;9.516;2023-06-05T00:04:58;4.80;;;4.30;;
7761;SDS011;3925;48.636;9.516;2023-06-05T00:07:26;7.27;;;5.00;;
7761;SDS011;3925;48.636;9.516;2023-06-05T00:09:53;4.83;;;4.43;;
7761;SDS011;3925;48.636;9.516;2023-06-05T00:12:21;4.40;;;4.00;;
7761;SDS011;3925;48.636;9.516;2023-06-05T00:14:48;4.57;;;4.17;;
7761;SDS011;3925;48.636;9.516;2023-06-05T00:17:15;5.73;;;4.30;;
7761;SDS011;3925;48.636;9.516;2023-06-05T00:19:42;4.40;;;4.00;;
7761;SDS011;3925;48.636;9.516;2023-06-05T00:22:09;5.17;;;4.67;;
7761;SDS011;3925;48.636;9.516;2023-06-05T00:24:36;4.83;;;4.30;;
7761;SDS011;3925;48.636;9.516;2023-06-05T00:27:04;4.70;;;4.20;;
7761;SDS011;3925;48.636;9.516;2023-06-05T00:29:32;4.33;;;4.03;;
7761;SDS011;3925;48.636;9.516;2023-06-05T00:31:59;4.47;;;4.00;;
7761;SDS011;3925;48.636;9.516;2023-06-05T00:34:26;4.60;;;4.17;;
7761;SDS011;3925;48.636;9.516;2023-06-05T00:36:53;5.10;;;4.60;;
7761;SDS011;3925;48.636;9.516;2023-06-05T00:39:19;5.57;;;5.07;;
7761;SDS011;3925;48.636;9.516;2023-06-05T00:41:46;4.90;;;3.90;;
7761;SDS011;3925;48.636;9.516;2023-06-05T00:44:13;4.20;;;3.77;;
7761;SDS011;3925;48.636;9.516;2023-06-05T00:46:43;8.07;;;4.30;;
7761;SDS011;3925;48.636;9.516;2023-06-05T00:49:10;4.63;;;4.23;;
7761;SDS011;3925;48.636;9.516;2023-06-05T00:51:38;4.40;;;4.00;;
7761;SDS011;3925;48.636;9.516;2023-06-05T00:54:08;4.70;;;4.20;;
7761;SDS011;3925;48.636;9.516;2023-06-05T00:56:35;4.40;;;4.00;;
7761;SDS011;3925;48.636;9.516;2023-06-05T00:59:02;4.57;;;4.17;;
7761;SDS011;3925;48.636;9.516;2023-06-05T01:01:29;4.63;;;4.23;;
7761;SDS011;3925;48.636;9.516;2023-06-05T01:04:00;4.63;;;4.23;;
7761;SDS011;3925;48.636;9.516;2023-06-05T01:06:28;5.00;;;4.13;;
7761;SDS011;3925;48.636;9.516;2023-06-05T01:08:59;4.43;;;4.03;;
7761;SDS011;3925;48.636;9.516;2023-06-05T01:11:28;5.33;;;3.97;;
7761;SDS011;3925;48.636;9.516;2023-06-05T01:14:05;4.20;;;3.90;;
7761;SDS011;3925;48.636;9.516;2023-06-05T01:16:41;6.13;;;4.37;;
7761;SDS011;3925;48.636;9.516;2023-06-05T01:19:12;5.20;;;4.70;;
7761;SDS011;3925;48.636;9.516;2023-06-05T01:21:41;4.60;;;4.20;;
7761;SDS011;3925;48.636;9.516;2023-06-05T01:24:10;4.63;;;4.33;;
7761;SDS011;3925;48.636;9.516;2023-06-05T01:26:41;5.30;;;4.40;;
7761;SDS011;3925;48.636;9.516;2023-06-05T01:29:17;4.53;;;4.13;;
7761;SDS011;3925;48.636;9.516;2023-06-05T01:31:48;4.33;;;3.93;;
7761;SDS011;3925;48.636;9.516;2023-06-05T01:34:21;4.00;;;3.60;;
7761;SDS011;3925;48.636;9.516;2023-06-05T01:36:49;4.63;;;4.23;;
7761;SDS011;3925;48.636;9.516;2023-06-05T01:39:19;4.03;;;3.57;;
7761;SDS011;3925;48.636;9.516;2023-06-05T01:41:49;4.73;;;4.33;;
7761;SDS011;3925;48.636;9.516;2023-06-05T01:44:16;4.57;;;4.17;;
7761;SDS011;3925;48.636;9.516;2023-06-05T01:46:44;5.10;;;4.60;;
7761;SDS011;3925;48.636;9.516;2023-06-05T01:49:11;5.90;;;5.40;;
7761;SDS011;3925;48.636;9.516;2023-06-05T01:51:38;5.80;;;4.70;;
7761;SDS011;3925;48.636;9.516;2023-06-05T01:54:05;4.50;;;4.10;;
7761;SDS011;3925;48.636;9.516;2023-06-05T01:56:34;5.87;;;5.37;;
7761;SDS011;3925;48.636;9.516;2023-06-05T01:59:01;5.00;;;4.57;;
7761;SDS011;3925;48.636;9.516;2023-06-05T02:01:32;5.43;;;4.40;;
7761;SDS011;3925;48.636;9.516;2023-06-05T02:03:59;4.70;;;4.30;;
7761;SDS011;3925;48.636;9.516;2023-06-05T02:06:31;5.80;;;5.20;;
7761;SDS011;3925;48.636;9.516;2023-06-05T02:09:06;4.80;;;4.40;;
7761;SDS011;3925;48.636;9.516;2023-06-05T02:11:36;11.00;;;5.10;;
7761;SDS011;3925;48.636;9.516;2023-06-05T02:14:03;5.00;;;4.50;;
7761;SDS011;3925;48.636;9.516;2023-06-05T02:16:31;5.73;;;4.67;;
7761;SDS011;3925;48.636;9.516;2023-06-05T02:18:58;4.53;;;4.10;;
7761;SDS011;3925;48.636;9.516;2023-06-05T02:21:28;7.93;;;4.93;;
7761;SDS011;3925;48.636;9.516;2023-06-05T02:23:57;5.50;;;5.00;;
7761;SDS011;3925;48.636;9.516;2023-06-05T02:26:24;4.50;;;4.10;;
7761;SDS011;3925;48.636;9.516;2023-06-05T02:28:53;6.00;;;5.00;;
7761;SDS011;3925;48.636;9.516;2023-06-05T02:31:20;5.50;;;4.30;;
7761;SDS011;3925;48.636;9.516;2023-06-05T02:33:50;4.73;;;4.33;;
7761;SDS011;3925;48.636;9.516;2023-06-05T02:36:17;5.20;;;4.70;;
7761;SDS011;3925;48.636;9.516;2023-06-05T02:38:44;4.80;;;4.40;;
7761;SDS011;3925;48.636;9.516;2023-06-05T02:41:14;5.43;;;4.90;;
7761;SDS011;3925;48.636;9.516;2023-06-05T02:43:41;5.87;;;4.90;;
7761;SDS011;3925;48.636;9.516;2023-06-05T02:46:09;6.00;;;4.50;;
7761;SDS011;3925;48.636;9.516;2023-06-05T02:48:37;5.70;;;4.77;;
7761;SDS011;3925;48.636;9.516;2023-06-05T02:51:03;5.00;;;4.50;;
7761;SDS011;3925;48.636;9.516;2023-06-05T02:53:31;5.17;;;4.67;;
7761;SDS011;3925;48.636;9.516;2023-06-05T02:55:58;5.07;;;4.60;;
7761;SDS011;3925;48.636;9.516;2023-06-05T02:58:26;4.83;;;4.40;;
7761;SDS011;3925;48.636;9.516;2023-06-05T03:00:53;7.20;;;3.67;;
7761;SDS011;3925;48.636;9.516;2023-06-05T03:03:22;4.83;;;4.23;;
7761;SDS011;3925;48.636;9.516;2023-06-05T03:05:50;8.23;;;5.40;;
7761;SDS011;3925;48.636;9.516;2023-06-05T03:08:17;5.40;;;4.90;;
7761;SDS011;3925;48.636;9.516;2023-06-05T03:10:44;6.70;;;6.00;;
7761;SDS011;3925;48.636;9.516;2023-06-05T03:13:11;5.63;;;5.03;;
7761;SDS011;3925;48.636;9.516;2023-06-05T03:15:38;6.63;;;5.30;;
7761;SDS011;3925;48.636;9.516;2023-06-05T03:18:07;5.03;;;4.50;;
7761;SDS011;3925;48.636;9.516;2023-06-05T03:20:35;6.03;;;5.43;;
7761;SDS011;3925;48.636;9.516;2023-06-05T03:23:03;7.80;;;4.60;;
7761;SDS011;3925;48.636;9.516;2023-06-05T03:25:30;6.27;;;5.60;;
7761;SDS011;3925;48.636;9.516;2023-06-05T03:27:57;5.47;;;4.97;;
7761;SDS011;3925;48.636;9.516;2023-06-05T03:30:24;5.53;;;4.87;;
7761;SDS011;3925;48.636;9.516;2023-06-05T03:32:50;7.60;;;4.80;;
7761;SDS011;3925;48.636;9.516;2023-06-05T03:35:17;8.40;;;4.43;;
7761;SDS011;3925;48.636;9.516;2023-06-05T03:37:45;4.40;;;4.00;;
7761;SDS011;3925;48.636;9.516;2023-06-05T03:40:12;8.10;;;5.40;;
7761;SDS011;3925;48.636;9.516;2023-06-05T03:42:39;7.93;;;4.80;;
7761;SDS011;3925;48.636;9.516;2023-06-05T03:45:06;5.30;;;4.90;;
7761;SDS011;3925;48.636;9.516;2023-06-05T03:47:34;6.93;;;4.40;;
7761;SDS011;3925;48.636;9.516;2023-06-05T03:50:01;4.40;;;4.00;;
7761;SDS011;3925;48.636;9.516;2023-06-05T03:52:28;5.57;;;5.07;;
7761;SDS011;3925;48.636;9.516;2023-06-05T03:54:56;5.33;;;4.63;;
7761;SDS011;3925;48.636;9.516;2023-06-05T03:57:25;5.20;;;4.70;;
7761;SDS011;3925;48.636;9.516;2023-06-05T03:59:52;5.60;;;5.03;;
7761;SDS011;3925;48.636;9.516;2023-06-05T04:02:18;4.30;;;3.90;;
7761;SDS011;3925;48.636;9.516;2023-06-05T04:04:45;5.93;;;4.03;;
7761;SDS011;3925;48.636;9.516;2023-06-05T04:07:12;4.80;;;4.30;;
7761;SDS011;3925;48.636;9.516;2023-06-05T04:09:39;5.53;;;4.60;;
7761;SDS011;3925;48.636;9.516;2023-06-05T04:12:08;6.40;;;4.40;;
7761;SDS011;3925;48.636;9.516;2023-06-05T04:14:35;6.20;;;5.00;;
7761;SDS011;3925;48.636;9.516;2023-06-05T04:17:03;7.73;;;4.60;;
7761;SDS011;3925;48.636;9.516;2023-06-05T04:19:30;6.70;;;5.17;;
7761;SDS011;3925;48.636;9.516;2023-06-05T04:21:57;6.00;;;5.40;;
7761;SDS011;3925;48.636;9.516;2023-06-05T04:24:25;5.00;;;4.50;;
7761;SDS011;3925;48.636;9.516;2023-06-05T04:26:52;5.00;;;4.50;;
7761;SDS011;3925;48.636;9.516;2023-06-05T04:29:21;8.70;;;5.00;;
7761;SDS011;3925;48.636;9.516;2023-06-05T04:31:48;5.33;;;4.70;;
7761;SDS011;3925;48.636;9.516;2023-06-05T04:34:15;4.80;;;4.20;;
7761;SDS011;3925;48.636;9.516;2023-06-05T04:36:43;5.60;;;5.00;;
7761;SDS011;3925;48.636;9.516;2023-06-05T04:39:10;6.23;;;5.50;;
7761;SDS011;3925;48.636;9.516;2023-06-05T04:41:39;5.50;;;5.00;;
7761;SDS011;3925;48.636;9.516;2023-06-05T04:44:10;9.63;;;6.10;;
7761;SDS011;3925;48.636;9.516;2023-06-05T04:46:39;5.57;;;5.07;;
7761;SDS011;3925;48.636;9.516;2023-06-05T04:49:09;5.70;;;5.20;;
7761;SDS011;3925;48.636;9.516;2023-06-05T04:51:36;6.60;;;5.07;;
7761;SDS011;3925;48.636;9.516;2023-06-05T04:54:03;6.63;;;4.70;;
7761;SDS011;3925;48.636;9.516;2023-06-05T04:56:30;7.77;;;6.10;;
7761;SDS011;3925;48.636;9.516;2023-06-05T04:58:59;6.53;;;4.90;;
7761;SDS011;3925;48.636;9.516;2023-06-05T05:01:27;7.03;;;5.00;;
7761;SDS011;3925;48.636;9.516;2023-06-05T05:03:56;5.87;;;5.23;;
7761;SDS011;3925;48.636;9.516;2023-06-05T05:06:23;8.73;;;5.97;;
7761;SDS011;3925;48.636;9.516;2023-06-05T05:08:51;5.97;;;5.37;;
7761;SDS011;3925;48.636;9.516;2023-06-05T05:11:18;9.43;;;5.10;;
7761;SDS011;3925;48.636;9.516;2023-06-05T05:13:45;7.50;;;5.47;;
7761;SDS011;3925;48.636;9.516;2023-06-05T05:16:11;7.30;;;5.60;;
7761;SDS011;3925;48.636;9.516;2023-06-05T05:18:39;7.10;;;6.40;;
7761;SDS011;3925;48.636;9.516;2023-06-05T05:21:08;7.77;;;5.57;;
7761;SDS011;3925;48.636;9.516;2023-06-05T05:23:35;12.03;;;6.90;;
7761;SDS011;3925;48.636;9.516;2023-06-05T05:26:02;8.80;;;6.10;;
7761;SDS011;3925;48.636;9.516;2023-06-05T05:28:29;7.73;;;5.57;;
7761;SDS011;3925;48.636;9.516;2023-06-05T05:30:56;7.87;;;6.40;;
7761;SDS011;3925;48.636;9.516;2023-06-05T05:33:23;7.73;;;5.67;;
7761;SDS011;3925;48.636;9.516;2023-06-05T05:35:50;7.60;;;5.80;;
7761;SDS011;3925;48.636;9.516;2023-06-05T05:38:18;9.07;;;6.57;;
7761;SDS011;3925;48.636;9.516;2023-06-05T05:40:45;11.03;;;6.10;;
7761;SDS011;3925;48.636;9.516;2023-06-05T05:43:12;6.67;;;5.10;;
7761;SDS011;3925;48.636;9.516;2023-06-05T05:45:40;5.73;;;5.13;;
7761;SDS011;3925;48.636;9.516;2023-06-05T05:48:08;6.83;;;5.70;;
7761;SDS011;3925;48.636;9.516;2023-06-05T05:50:36;7.97;;;5.23;;
7761;SDS011;3925;48.636;9.516;2023-06-05T05:53:03;6.17;;;5.60;;
7761;SDS011;3925;48.636;9.516;2023-06-05T05:55:31;8.40;;;5.87;;
7761;SDS011;3925;48.636;9.516;2023-06-05T05:57:58;7.60;;;6.13;;
7761;SDS011;3925;48.636;9.516;2023-06-05T06:00:24;5.70;;;5.20;;
7761;SDS011;3925;48.636;9.516;2023-06-05T06:02:53;6.57;;;4.47;;
7761;SDS011;3925;48.636;9.516;2023-06-05T06:05:20;7.70;;;5.23;;
7761;SDS011;3925;48.636;9.516;2023-06-05T06:07:47;7.43;;;5.80;;
7761;SDS011;3925;48.636;9.516;2023-06-05T06:10:14;5.30;;;4.73;;
7761;SDS011;3925;48.636;9.516;2023-06-05T06:12:42;5.70;;;5.20;;
7761;SDS011;3925;48.636;9.516;2023-06-05T06:15:09;13.50;;;6.63;;
7761;SDS011;3925;48.636;9.516;2023-06-05T06:17:37;5.60;;;4.67;;
7761;SDS011;3925;48.636;9.516;2023-06-05T06:20:04;5.40;;;5.00;;
7761;SDS011;3925;48.636;9.516;2023-06-05T06:22:34;5.53;;;5.03;;
7761;SDS011;3925;48.636;9.516;2023-06-05T06:25:01;5.80;;;4.23;;
7761;SDS011;3925;48.636;9.516;2023-06-05T06:27:28;5.23;;;4.40;;
7761;SDS011;3925;48.636;9.516;2023-06-05T06:29:57;4.27;;;3.97;;
7761;SDS011;3925;48.636;9.516;2023-06-05T06:32:24;4.97;;;4.47;;
7761;SDS011;3925;48.636;9.516;2023-06-05T06:34:51;3.90;;;3.60;;
7761;SDS011;3925;48.636;9.516;2023-06-05T06:37:19;4.70;;;4.30;;
7761;SDS011;3925;48.636;9.516;2023-06-05T06:39:47;4.80;;;4.20;;
7761;SDS011;3925;48.636;9.516;2023-06-05T06:42:14;5.37;;;4.20;;
7761;SDS011;3925;48.636;9.516;2023-06-05T06:44:41;4.90;;;4.27;;
7761;SDS011;3925;48.636;9.516;2023-06-05T06:47:09;4.37;;;3.97;;
7761;SDS011;3925;48.636;9.516;2023-06-05T06:49:36;4.23;;;3.83;;
7761;SDS011;3925;48.636;9.516;2023-06-05T06:52:04;4.37;;;3.97;;
7761;SDS011;3925;48.636;9.516;2023-06-05T06:54:31;5.73;;;3.70;;
7761;SDS011;3925;48.636;9.516;2023-06-05T06:56:59;3.67;;;3.47;;
7761;SDS011;3925;48.636;9.516;2023-06-05T06:59:26;6.03;;;3.53;;
7761;SDS011;3925;48.636;9.516;2023-06-05T07:02:07;4.47;;;3.93;;
7761;SDS011;3925;48.636;9.516;2023-06-05T07:04:37;3.80;;;3.50;;
7761;SDS011;3925;48.636;9.516;2023-06-05T07:07:07;5.37;;;4.30;;
7761;SDS011;3925;48.636;9.516;2023-06-05T07:09:35;3.73;;;3.40;;
7761;SDS011;3925;48.636;9.516;2023-06-05T07:12:02;4.17;;;3.77;;
7761;SDS011;3925;48.636;9.516;2023-06-05T07:14:31;3.47;;;3.27;;
7761;SDS011;3925;48.636;9.516;2023-06-05T07:16:58;3.60;;;3.30;;
7761;SDS011;3925;48.636;9.516;2023-06-05T07:19:27;3.60;;;3.30;;
7761;SDS011;3925;48.636;9.516;2023-06-05T07:21:55;4.73;;;3.77;;
7761;SDS011;3925;48.636;9.516;2023-06-05T07:24:22;6.50;;;3.40;;
7761;SDS011;3925;48.636;9.516;2023-06-05T07:26:50;4.17;;;3.77;;
7761;SDS011;3925;48.636;9.516;2023-06-05T07:29:18;5.00;;;3.47;;
7761;SDS011;3925;48.636;9.516;2023-06-05T07:31:46;3.90;;;3.60;;
7761;SDS011;3925;48.636;9.516;2023-06-05T07:34:13;3.27;;;3.03;;
7761;SDS011;3925;48.636;9.516;2023-06-05T07:36:43;3.70;;;3.40;;
7761;SDS011;3925;48.636;9.516;2023-06-05T07:39:11;4.00;;;3.70;;
7761;SDS011;3925;48.636;9.516;2023-06-05T07:41:38;4.60;;;3.63;;
7761;SDS011;3925;48.636;9.516;2023-06-05T07:44:05;4.20;;;3.90;;
7761;SDS011;3925;48.636;9.516;2023-06-05T07:46:32;3.77;;;3.47;;
7761;SDS011;3925;48.636;9.516;2023-06-05T07:48:59;4.10;;;3.80;;
7761;SDS011;3925;48.636;9.516;2023-06-05T07:51:26;3.93;;;3.57;;
7761;SDS011;3925;48.636;9.516;2023-06-05T07:53:54;5.43;;;3.70;;
7761;SDS011;3925;48.636;9.516;2023-06-05T07:56:21;4.20;;;3.80;;
7761;SDS011;3925;48.636;9.516;2023-06-05T07:58:50;3.93;;;3.53;;
7761;SDS011;3925;48.636;9.516;2023-06-05T08:01:17;5.63;;;3.30;;
7761;SDS011;3925;48.636;9.516;2023-06-05T08:03:45;5.63;;;3.70;;
7761;SDS011;3925;48.636;9.516;2023-06-05T08:06:12;6.30;;;3.77;;
7761;SDS011;3925;48.636;9.516;2023-06-05T08:08:40;3.90;;;3.47;;
7761;SDS011;3925;48.636;9.516;2023-06-05T08:11:08;3.87;;;3.50;;
7761;SDS011;3925;48.636;9.516;2023-06-05T08:13:36;4.40;;;4.00;;
7761;SDS011;3925;48.636;9.516;2023-06-05T08:16:03;3.70;;;3.40;;
7761;SDS011;3925;48.636;9.516;2023-06-05T08:18:30;3.97;;;3.67;;
7761;SDS011;3925;48.636;9.516;2023-06-05T08:20:57;3.83;;;3.53;;
7761;SDS011;3925;48.636;9.516;2023-06-05T08:23:23;4.30;;;3.90;;
7761;SDS011;3925;48.636;9.516;2023-06-05T08:25:51;4.10;;;3.83;;
7761;SDS011;3925;48.636;9.516;2023-06-05T08:28:19;4.90;;;4.50;;
7761;SDS011;3925;48.636;9.516;2023-06-05T08:30:46;4.60;;;4.30;;
7761;SDS011;3925;48.636;9.516;2023-06-05T08:33:13;4.50;;;3.70;;
7761;SDS011;3925;48.636;9.516;2023-06-05T08:35:41;4.50;;;4.10;;
7761;SDS011;3925;48.636;9.516;2023-06-05T08:38:08;4.23;;;3.83;;
7761;SDS011;3925;48.636;9.516;2023-06-05T08:40:34;5.87;;;5.30;;
7761;SDS011;3925;48.636;9.516;2023-06-05T08:43:03;5.20;;;4.80;;
7761;SDS011;3925;48.636;9.516;2023-06-05T08:45:31;5.73;;;5.23;;
7761;SDS011;3925;48.636;9.516;2023-06-05T08:47:59;5.03;;;4.53;;
7761;SDS011;3925;48.636;9.516;2023-06-05T08:50:26;5.00;;;4.60;;
7761;SDS011;3925;48.636;9.516;2023-06-05T08:52:56;4.27;;;3.87;;
7761;SDS011;3925;48.636;9.516;2023-06-05T08:55:24;6.20;;;5.07;;
7761;SDS011;3925;48.636;9.516;2023-06-05T08:57:51;4.97;;;3.90;;
7761;SDS011;3925;48.636;9.516;2023-06-05T09:00:18;4.47;;;4.17;;
7761;SDS011;3925;48.636;9.516;2023-06-05T09:02:47;5.13;;;4.47;;
7761;SDS011;3925;48.636;9.516;2023-06-05T09:05:14;5.07;;;4.57;;
7761;SDS011;3925;48.636;9.516;2023-06-05T09:07:41;6.13;;;4.60;;
7761;SDS011;3925;48.636;9.516;2023-06-05T09:10:20;4.20;;;3.90;;
7761;SDS011;3925;48.636;9.516;2023-06-05T09:12:52;4.40;;;4.10;;
7761;SDS011;3925;48.636;9.516;2023-06-05T09:15:23;4.67;;;4.27;;
7761;SDS011;3925;48.636;9.516;2023-06-05T09:18:07;3.70;;;3.50;;
7761;SDS011;3925;48.636;9.516;2023-06-05T09:20:36;4.47;;;4.13;;
7761;SDS011;3925;48.636;9.516;2023-06-05T09:23:04;4.43;;;4.03;;
7761;SDS011;3925;48.636;9.516;2023-06-05T09:25:47;5.57;;;4.03;;
7761;SDS011;3925;48.636;9.516;2023-06-05T09:28:15;6.20;;;4.00;;
7761;SDS011;3925;48.636;9.516;2023-06-05T09:30:52;4.80;;;3.90;;
7761;SDS011;3925;48.636;9.516;2023-06-05T09:33:22;4.60;;;3.97;;
7761;SDS011;3925;48.636;9.516;2023-06-05T09:36:01;4.20;;;3.80;;
7761;SDS011;3925;48.636;9.516;2023-06-05T09:38:32;4.50;;;3.93;;
7761;SDS011;3925;48.636;9.516;2023-06-05T09:41:05;4.40;;;4.10;;
7761;SDS011;3925;48.636;9.516;2023-06-05T09:43:33;4.03;;;3.60;;
7761;SDS011;3925;48.636;9.516;2023-06-05T09:46:08;5.27;;;4.70;;
7761;SDS011;3925;48.636;9.516;2023-06-05T09:48:36;4.50;;;4.10;;
7761;SDS011;3925;48.636;9.516;2023-06-05T09:51:10;3.97;;;3.67;;
7761;SDS011;3925;48.636;9.516;2023-06-05T09:53:40;4.53;;;4.13;;
7761;SDS011;3925;48.636;9.516;2023-06-05T09:56:09;3.40;;;3.20;;
7761;SDS011;3925;48.636;9.516;2023-06-05T09:58:39;4.43;;;3.40;;
7761;SDS011;3925;48.636;9.516;2023-06-05T10:01:12;4.30;;;3.83;;
7761;SDS011;3925;48.636;9.516;2023-06-05T10:03:44;3.80;;;3.47;;
7761;SDS011;3925;48.636;9.516;2023-06-05T10:06:16;6.30;;;3.80;;
7761;SDS011;3925;48.636;9.516;2023-06-05T10:08:49;4.47;;;3.73;;
7761;SDS011;3925;48.636;9.516;2023-06-05T10:11:17;4.40;;;4.10;;
7761;SDS011;3925;48.636;9.516;2023-06-05T10:13:46;4.60;;;4.20;;
7761;SDS011;3925;48.636;9.516;2023-06-05T10:16:14;4.10;;;3.70;;
7761;SDS011;3925;48.636;9.516;2023-06-05T10:18:44;4.93;;;4.53;;
7761;SDS011;3925;48.636;9.516;2023-06-05T10:21:12;4.50;;;4.10;;
7761;SDS011;3925;48.636;9.516;2023-06-05T10:23:40;7.90;;;3.73;;
7761;SDS011;3925;48.636;9.516;2023-06-05T10:26:10;4.20;;;3.90;;
7761;SDS011;3925;48.636;9.516;2023-06-05T10:28:49;3.83;;;3.63;;
7761;SDS011;3925;48.636;9.516;2023-06-05T10:31:26;6.63;;;4.13;;
7761;SDS011;3925;48.636;9.516;2023-06-05T10:34:08;4.90;;;3.90;;
7761;SDS011;3925;48.636;9.516;2023-06-05T10:39:53;3.70;;;3.40;;
7761;SDS011;3925;48.636;9.516;2023-06-05T10:42:24;6.93;;;3.67;;
7761;SDS011;3925;48.636;9.516;2023-06-05T10:44:52;4.07;;;3.60;;
7761;SDS011;3925;48.636;9.516;2023-06-05T10:50:25;4.47;;;3.90;;
7761;SDS011;3925;48.636;9.516;2023-06-05T10:52:56;4.60;;;4.20;;
7761;SDS011;3925;48.636;9.516;2023-06-05T10:55:24;4.90;;;4.47;;
7761;SDS011;3925;48.636;9.516;2023-06-05T10:58:08;4.90;;;4.50;;
7761;SDS011;3925;48.636;9.516;2023-06-05T11:00:39;4.77;;;4.30;;
7761;SDS011;3925;48.636;9.516;2023-06-05T11:03:57;4.63;;;4.23;;
7761;SDS011;3925;48.636;9.516;2023-06-05T11:06:26;3.60;;;3.30;;
7761;SDS011;3925;48.636;9.516;2023-06-05T11:09:06;6.77;;;3.90;;
7761;SDS011;3925;48.636;9.516;2023-06-05T11:14:20;4.00;;;3.60;;
7761;SDS011;3925;48.636;9.516;2023-06-05T11:16:47;4.10;;;3.80;;
7761;SDS011;3925;48.636;9.516;2023-06-05T11:19:34;4.77;;;4.20;;
7761;SDS011;3925;48.636;9.516;2023-06-05T11:22:03;4.17;;;3.77;;
7761;SDS011;3925;48.636;9.516;2023-06-05T11:24:32;6.27;;;4.97;;
7761;SDS011;3925;48.636;9.516;2023-06-05T11:27:00;4.50;;;4.10;;
7761;SDS011;3925;48.636;9.516;2023-06-05T11:29:28;5.50;;;4.90;;
7761;SDS011;3925;48.636;9.516;2023-06-05T11:31:55;4.50;;;4.10;;
7761;SDS011;3925;48.636;9.516;2023-06-05T11:34:22;5.33;;;4.93;;
7761;SDS011;3925;48.636;9.516;2023-06-05T11:36:50;4.33;;;3.93;;
7761;SDS011;3925;48.636;9.516;2023-06-05T11:39:19;5.93;;;3.83;;
7761;SDS011;3925;48.636;9.516;2023-06-05T11:41:46;4.70;;;4.30;;
7761;SDS011;3925;48.636;9.516;2023-06-05T11:44:15;5.17;;;4.67;;
7761;SDS011;3925;48.636;9.516;2023-06-05T11:46:55;5.73;;;5.10;;
7761;SDS011;3925;48.636;9.516;2023-06-05T11:49:23;4.70;;;4.40;;
7761;SDS011;3925;48.636;9.516;2023-06-05T11:51:51;5.00;;;4.60;;
7761;SDS011;3925;48.636;9.516;2023-06-05T11:54:27;4.63;;;4.33;;
7761;SDS011;3925;48.636;9.516;2023-06-05T11:56:56;7.53;;;4.97;;
7761;SDS011;3925;48.636;9.516;2023-06-05T11:59:33;4.37;;;3.97;;
7761;SDS011;3925;48.636;9.516;2023-06-05T12:02:00;5.27;;;4.87;;
7761;SDS011;3925;48.636;9.516;2023-06-05T12:04:28;4.93;;;4.20;;
7761;SDS011;3925;48.636;9.516;2023-06-05T12:06:56;4.47;;;4.10;;
7761;SDS011;3925;48.636;9.516;2023-06-05T12:09:24;5.30;;;4.80;;
7761;SDS011;3925;48.636;9.516;2023-06-05T12:11:57;4.70;;;4.30;;
7761;SDS011;3925;48.636;9.516;2023-06-05T12:14:32;5.83;;;4.40;;
7761;SDS011;3925;48.636;9.516;2023-06-05T12:16:59;5.43;;;4.97;;
7761;SDS011;3925;48.636;9.516;2023-06-05T12:19:28;4.43;;;4.03;;
7761;SDS011;3925;48.636;9.516;2023-06-05T12:22:01;4.77;;;4.37;;
7761;SDS011;3925;48.636;9.516;2023-06-05T12:24:31;4.23;;;3.90;;
7761;SDS011;3925;48.636;9.516;2023-06-05T12:26:59;5.27;;;4.77;;
7761;SDS011;3925;48.636;9.516;2023-06-05T12:29:27;4.70;;;4.30;;
7761;SDS011;3925;48.636;9.516;2023-06-05T12:31:55;5.33;;;4.87;;
7761;SDS011;3925;48.636;9.516;2023-06-05T12:34:38;4.57;;;4.20;;
7761;SDS011;3925;48.636;9.516;2023-06-05T12:37:10;5.33;;;4.83;;
7761;SDS011;3925;48.636;9.516;2023-06-05T12:39:39;5.03;;;4.60;;
7761;SDS011;3925;48.636;9.516;2023-06-05T12:42:06;5.70;;;5.20;;
7761;SDS011;3925;48.636;9.516;2023-06-05T12:44:33;4.63;;;4.23;;
7761;SDS011;3925;48.636;9.516;2023-06-05T12:47:00;4.83;;;4.33;;
7761;SDS011;3925;48.636;9.516;2023-06-05T12:49:27;5.20;;;4.70;;
7761;SDS011;3925;48.636;9.516;2023-06-05T12:51:54;5.03;;;4.63;;
7761;SDS011;3925;48.636;9.516;2023-06-05T12:54:22;5.10;;;4.70;;
7761;SDS011;3925;48.636;9.516;2023-06-05T12:56:50;4.70;;;4.33;;
7761;SDS011;3925;48.636;9.516;2023-06-05T12:59:17;7.20;;;4.80;;
7761;SDS011;3925;48.636;9.516;2023-06-05T13:01:45;4.87;;;4.47;;
7761;SDS011;3925;48.636;9.516;2023-06-05T13:04:12;5.33;;;4.90;;
7761;SDS011;3925;48.636;9.516;2023-06-05T13:06:40;4.60;;;4.30;;
7761;SDS011;3925;48.636;9.516;2023-06-05T13:09:07;6.90;;;5.17;;
7761;SDS011;3925;48.636;9.516;2023-06-05T13:11:34;4.43;;;4.13;;
7761;SDS011;3925;48.636;9.516;2023-06-05T13:14:03;5.10;;;4.60;;
7761;SDS011;3925;48.636;9.516;2023-06-05T13:16:30;5.50;;;5.10;;
7761;SDS011;3925;48.636;9.516;2023-06-05T13:18:57;5.53;;;4.77;;
7761;SDS011;3925;48.636;9.516;2023-06-05T13:21:24;4.90;;;4.50;;
7761;SDS011;3925;48.636;9.516;2023-06-05T13:23:51;5.17;;;4.80;;
7761;SDS011;3925;48.636;9.516;2023-06-05T13:26:18;5.07;;;4.57;;
7761;SDS011;3925;48.636;9.516;2023-06-05T13:28:45;5.00;;;4.50;;
7761;SDS011;3925;48.636;9.516;2023-06-05T13:31:13;8.63;;;4.93;;
7761;SDS011;3925;48.636;9.516;2023-06-05T13:33:40;4.73;;;4.40;;
7761;SDS011;3925;48.636;9.516;2023-06-05T13:36:07;4.73;;;4.30;;
7761;SDS011;3925;48.636;9.516;2023-06-05T13:38:34;4.60;;;4.30;;
7761;SDS011;3925;48.636;9.516;2023-06-05T13:41:02;5.13;;;4.73;;
7761;SDS011;3925;48.636;9.516;2023-06-05T13:43:29;4.47;;;4.17;;
7761;SDS011;3925;48.636;9.516;2023-06-05T13:45:57;5.10;;;4.70;;
7761;SDS011;3925;48.636;9.516;2023-06-05T13:48:25;6.17;;;4.43;;
7761;SDS011;3925;48.636;9.516;2023-06-05T13:50:52;4.80;;;4.40;;
7761;SDS011;3925;48.636;9.516;2023-06-05T13:53:18;4.57;;;4.17;;
7761;SDS011;3925;48.636;9.516;2023-06-05T13:55:45;5.80;;;5.30;;
7761;SDS011;3925;48.636;9.516;2023-06-05T13:58:12;5.03;;;4.60;;
7761;SDS011;3925;48.636;9.516;2023-06-05T14:00:39;5.53;;;4.63;;
7761;SDS011;3925;48.636;9.516;2023-06-05T14:03:06;5.47;;;4.80;;
7761;SDS011;3925;48.636;9.516;2023-06-05T14:05:34;6.27;;;4.03;;
7761;SDS011;3925;48.636;9.516;2023-06-05T14:08:01;5.53;;;5.10;;
7761;SDS011;3925;48.636;9.516;2023-06-05T14:10:28;5.27;;;4.87;;
7761;SDS011;3925;48.636;9.516;2023-06-05T14:12:55;4.73;;;4.33;;
7761;SDS011;3925;48.636;9.516;2023-06-05T14:15:22;4.77;;;4.37;;
7761;SDS011;3925;48.636;9.516;2023-06-05T14:17:50;4.90;;;4.40;;
7761;SDS011;3925;48.636;9.516;2023-06-05T14:20:17;4.57;;;4.10;;
7761;SDS011;3925;48.636;9.516;2023-06-05T14:22:46;6.07;;;4.53;;
7761;SDS011;3925;48.636;9.516;2023-06-05T14:25:13;5.37;;;4.87;;
7761;SDS011;3925;48.636;9.516;2023-06-05T14:27:40;6.30;;;5.80;;
7761;SDS011;3925;48.636;9.516;2023-06-05T14:30:07;5.03;;;4.63;;
7761;SDS011;3925;48.636;9.516;2023-06-05T14:32:34;4.87;;;4.47;;
7761;SDS011;3925;48.636;9.516;2023-06-05T14:35:02;5.60;;;5.20;;
7761;SDS011;3925;48.636;9.516;2023-06-05T14:37:29;5.27;;;4.87;;
7761;SDS011;3925;48.636;9.516;2023-06-05T14:39:57;5.30;;;4.90;;
7761;SDS011;3925;48.636;9.516;2023-06-05T14:42:23;5.03;;;4.63;;
7761;SDS011;3925;48.636;9.516;2023-06-05T14:44:50;5.60;;;5.07;;
7761;SDS011;3925;48.636;9.516;2023-06-05T14:47:17;5.77;;;5.27;;
7761;SDS011;3925;48.636;9.516;2023-06-05T14:49:44;5.13;;;4.30;;
7761;SDS011;3925;48.636;9.516;2023-06-05T14:52:11;5.57;;;5.00;;
7761;SDS011;3925;48.636;9.516;2023-06-05T14:54:38;8.23;;;4.37;;
7761;SDS011;3925;48.636;9.516;2023-06-05T14:57:06;6.30;;;4.70;;
7761;SDS011;3925;48.636;9.516;2023-06-05T14:59:33;5.23;;;4.33;;
7761;SDS011;3925;48.636;9.516;2023-06-05T15:02:00;5.20;;;4.80;;
7761;SDS011;3925;48.636;9.516;2023-06-05T15:04:27;5.33;;;4.93;;
7761;SDS011;3925;48.636;9.516;2023-06-05T15:06:54;5.77;;;4.37;;
7761;SDS011;3925;48.636;9.516;2023-06-05T15:09:21;6.47;;;4.77;;
7761;SDS011;3925;48.636;9.516;2023-06-05T15:11:49;3.93;;;3.53;;
7761;SDS011;3925;48.636;9.516;2023-06-05T15:14:17;4.70;;;4.10;;
7761;SDS011;3925;48.636;9.516;2023-06-05T15:16:44;5.60;;;5.10;;
7761;SDS011;3925;48.636;9.516;2023-06-05T15:19:11;4.20;;;3.90;;
7761;SDS011;3925;48.636;9.516;2023-06-05T15:21:38;5.03;;;4.60;;
7761;SDS011;3925;48.636;9.516;2023-06-05T15:24:05;4.93;;;4.53;;
7761;SDS011;3925;48.636;9.516;2023-06-05T15:26:32;5.20;;;4.80;;
7761;SDS011;3925;48.636;9.516;2023-06-05T15:28:59;5.00;;;4.50;;
7761;SDS011;3925;48.636;9.516;2023-06-05T15:31:27;9.43;;;4.70;;